createdAt,value
2023-04-04T00:00:30.813Z,98.70
2023-04-04T00:02:57.916Z,98.80
2023-04-04T00:05:24.926Z,98.80
2023-04-04T00:07:51.849Z,98.90
2023-04-04T00:10:18.744Z,98.80
2023-04-04T00:12:46.668Z,98.90
2023-04-04T00:15:13.684Z,98.90
2023-04-04T00:17:40.713Z,98.90
2023-04-04T00:20:08.036Z,98.80
2023-04-04T00:22:34.976Z,98.80
2023-04-04T00:25:01.955Z,98.60
2023-04-04T00:27:28.884Z,98.50
2023-04-04T00:29:55.966Z,98.30
2023-04-04T00:32:23.026Z,98.20
2023-04-04T00:34:54.043Z,98.10
2023-04-04T00:37:21.799Z,98.00
2023-04-04T00:39:50.190Z,97.90
2023-04-04T00:42:17.415Z,97.80
2023-04-04T00:44:44.517Z,97.80
2023-04-04T00:47:11.860Z,97.70
2023-04-04T00:49:38.756Z,97.70
2023-04-04T00:52:07.792Z,97.60
2023-04-04T00:54:35.898Z,97.60
2023-04-04T00:57:05.377Z,97.50
2023-04-04T00:59:33.024Z,97.40
2023-04-04T01:02:01.439Z,97.30
2023-04-04T01:04:31.752Z,97.20
2023-04-04T01:06:59.105Z,97.20
2023-04-04T01:09:26.692Z,97.10
2023-04-04T01:11:55.760Z,97.10
2023-04-04T01:14:23.182Z,97.10
2023-04-04T01:16:51.754Z,97.10
2023-04-04T01:19:45.789Z,97.10
2023-04-04T01:22:14.303Z,97.10
2023-04-04T01:24:43.264Z,97.20
2023-04-04T01:27:10.440Z,97.30
2023-04-04T01:29:37.445Z,97.40
2023-04-04T01:32:11.084Z,97.50
2023-04-04T01:34:44.659Z,97.60
2023-04-04T01:37:16.256Z,97.70
2023-04-04T01:39:59.806Z,97.90
2023-04-04T01:42:28.044Z,98.00
2023-04-04T01:44:57.741Z,98.00
2023-04-04T01:47:24.924Z,98.20
2023-04-04T01:49:54.074Z,98.20
2023-04-04T01:52:21.687Z,98.30
2023-04-04T01:54:49.605Z,98.50
2023-04-04T01:57:16.493Z,98.50
2023-04-04T01:59:43.377Z,98.60
2023-04-04T02:02:10.364Z,98.60
2023-04-04T02:04:37.639Z,98.60
2023-04-04T02:07:04.877Z,98.60
2023-04-04T02:09:31.756Z,98.70
2023-04-04T02:11:58.701Z,98.80
2023-04-04T02:14:25.766Z,98.90
2023-04-04T02:16:52.710Z,99.00
2023-04-04T02:19:20.123Z,99.10
2023-04-04T02:21:47.317Z,99.20
2023-04-04T02:24:14.260Z,99.20
2023-04-04T02:26:41.700Z,99.30
2023-04-04T02:29:08.604Z,99.40
2023-04-04T02:31:35.711Z,99.40
2023-04-04T02:34:03.683Z,99.40
2023-04-04T02:36:30.578Z,99.50
2023-04-04T02:38:57.621Z,99.40
2023-04-04T02:41:25.522Z,99.40
2023-04-04T02:43:52.489Z,99.40
2023-04-04T02:46:21.957Z,99.50
2023-04-04T02:48:50.595Z,99.60
2023-04-04T02:51:17.685Z,99.70
2023-04-04T02:53:44.681Z,99.80
2023-04-04T02:56:12.301Z,99.80
2023-04-04T02:58:41.458Z,99.90
2023-04-04T03:01:08.603Z,99.90
2023-04-04T03:03:35.728Z,99.90
2023-04-04T03:06:02.826Z,99.80
2023-04-04T03:08:29.777Z,99.80
2023-04-04T03:10:57.764Z,99.70
2023-04-04T03:13:24.708Z,99.50
2023-04-04T03:15:51.797Z,99.40
2023-04-04T03:18:19.208Z,99.30
2023-04-04T03:20:46.152Z,99.30
2023-04-04T03:23:13.087Z,99.30
2023-04-04T03:25:41.002Z,99.30
2023-04-04T03:28:11.465Z,99.30
2023-04-04T03:30:39.060Z,99.30
2023-04-04T03:33:10.104Z,99.40
2023-04-04T03:35:41.307Z,99.40
2023-04-04T03:38:09.520Z,99.50
2023-04-04T03:40:37.047Z,99.50
2023-04-04T03:43:06.709Z,99.40
2023-04-04T03:45:36.709Z,99.50
2023-04-04T03:48:04.040Z,99.60
2023-04-04T03:50:31.466Z,99.60
2023-04-04T03:53:01.105Z,99.60
2023-04-04T03:55:28.097Z,99.60
2023-04-04T03:57:55.045Z,99.60
2023-04-04T04:00:22.050Z,99.70
2023-04-04T04:02:49.038Z,99.70
2023-04-04T04:05:16.232Z,99.70
2023-04-04T04:07:46.749Z,99.70
2023-04-04T04:10:17.147Z,99.80
2023-04-04T04:12:44.021Z,99.80
2023-04-04T04:15:11.494Z,99.90
2023-04-04T04:17:42.240Z,99.90
2023-04-04T04:20:10.077Z,99.90
2023-04-04T04:22:38.126Z,99.90
2023-04-04T04:25:05.916Z,99.90
2023-04-04T04:27:32.846Z,99.90
2023-04-04T04:29:59.808Z,99.90
2023-04-04T04:32:27.398Z,99.90
2023-04-04T04:34:54.308Z,99.90
2023-04-04T04:37:21.538Z,99.90
2023-04-04T04:39:48.736Z,99.90
2023-04-04T04:42:15.750Z,99.90
2023-04-04T04:44:42.676Z,99.90
2023-04-04T04:47:09.717Z,99.90
2023-04-04T04:49:36.665Z,99.90
2023-04-04T04:52:03.550Z,99.90
2023-04-04T04:54:30.588Z,99.90
2023-04-04T04:56:57.751Z,99.90
2023-04-04T04:59:25.030Z,99.90
2023-04-04T05:01:51.988Z,99.90
2023-04-04T05:04:18.871Z,99.90
2023-04-04T05:06:45.818Z,99.90
2023-04-04T05:09:14.574Z,99.90
2023-04-04T05:11:41.530Z,99.90
2023-04-04T05:14:08.491Z,99.90
2023-04-04T05:16:35.727Z,99.90
2023-04-04T05:19:03.158Z,99.90
2023-04-04T05:21:30.837Z,99.90
2023-04-04T05:23:58.682Z,99.90
2023-04-04T05:26:25.586Z,99.90
2023-04-04T05:28:52.518Z,99.90
2023-04-04T05:31:19.842Z,99.90
2023-04-04T05:33:46.802Z,99.90
2023-04-04T05:36:13.719Z,99.90
2023-04-04T05:38:41.705Z,99.90
2023-04-04T05:41:08.583Z,99.90
2023-04-04T05:43:35.738Z,99.90
2023-04-04T05:46:03.835Z,99.90
2023-04-04T05:48:31.039Z,99.90
2023-04-04T05:50:57.986Z,99.90
2023-04-04T05:53:25.225Z,99.90
2023-04-04T05:55:53.525Z,99.90
2023-04-04T05:58:20.637Z,99.90
2023-04-04T06:00:48.851Z,99.90
2023-04-04T06:03:17.085Z,99.90
2023-04-04T06:05:49.637Z,99.90
2023-04-04T06:08:16.543Z,99.90
2023-04-04T06:10:43.399Z,99.90
2023-04-04T06:13:10.318Z,99.90
2023-04-04T06:15:37.182Z,99.90
2023-04-04T06:18:04.143Z,99.90
2023-04-04T06:20:31.250Z,99.90
2023-04-04T06:22:58.140Z,99.90
2023-04-04T06:25:26.908Z,99.90
2023-04-04T06:27:53.867Z,99.90
2023-04-04T06:30:20.837Z,99.90
2023-04-04T06:32:47.736Z,99.90
2023-04-04T06:35:14.748Z,99.90
2023-04-04T06:37:41.614Z,99.90
2023-04-04T06:40:09.136Z,99.90
2023-04-04T06:42:36.043Z,99.90
2023-04-04T06:45:03.597Z,99.90
2023-04-04T06:47:30.503Z,99.60
2023-04-04T06:49:57.499Z,99.40
2023-04-04T06:52:25.504Z,99.30
2023-04-04T06:54:52.723Z,98.90
2023-04-04T06:57:19.633Z,98.70
2023-04-04T06:59:47.602Z,98.10
2023-04-04T07:02:14.473Z,97.80
2023-04-04T07:04:42.019Z,97.60
2023-04-04T07:07:08.956Z,97.50
2023-04-04T07:09:36.867Z,96.80
2023-04-04T07:12:04.272Z,96.50
2023-04-04T07:14:31.352Z,96.10
2023-04-04T07:16:58.799Z,95.70
2023-04-04T07:19:28.835Z,95.60
2023-04-04T07:21:56.932Z,95.30
2023-04-04T07:24:24.930Z,95.00
2023-04-04T07:26:52.000Z,94.60
2023-04-04T07:29:21.453Z,94.10
2023-04-04T07:31:48.560Z,94.50
2023-04-04T07:34:15.517Z,94.60
2023-04-04T07:36:42.540Z,94.80
2023-04-04T07:39:09.435Z,94.70
2023-04-04T07:41:36.724Z,93.50
2023-04-04T07:44:03.720Z,93.30
2023-04-04T07:46:30.670Z,93.50
2023-04-04T07:48:57.669Z,93.50
2023-04-04T07:51:29.560Z,93.00
2023-04-04T07:53:56.687Z,92.60
2023-04-04T07:56:24.654Z,92.30
2023-04-04T07:58:51.594Z,92.50
2023-04-04T08:01:18.656Z,92.10
2023-04-04T08:03:45.978Z,90.60
2023-04-04T08:06:13.352Z,90.30
2023-04-04T08:08:41.262Z,90.30
2023-04-04T08:11:08.179Z,88.80
2023-04-04T08:13:35.047Z,88.70
2023-04-04T08:16:02.045Z,89.00
2023-04-04T08:18:29.061Z,87.30
2023-04-04T08:20:55.977Z,87.10
2023-04-04T08:23:22.873Z,86.80
2023-04-04T08:25:49.889Z,86.20
2023-04-04T08:28:16.958Z,85.10
2023-04-04T08:30:43.898Z,84.40
2023-04-04T08:33:10.919Z,84.60
2023-04-04T08:35:37.894Z,84.70
2023-04-04T08:38:08.380Z,84.10
2023-04-04T08:40:35.776Z,83.20
2023-04-04T08:43:05.469Z,81.20
2023-04-04T08:45:33.734Z,80.40
2023-04-04T08:48:03.841Z,81.30
2023-04-04T08:50:31.464Z,79.80
2023-04-04T08:52:59.418Z,78.60
2023-04-04T08:55:26.941Z,76.90
2023-04-04T08:57:54.215Z,75.50
2023-04-04T09:00:22.841Z,73.60
2023-04-04T09:03:18.293Z,70.40
2023-04-04T09:05:45.800Z,69.40
2023-04-04T09:08:13.674Z,68.10
2023-04-04T09:10:44.230Z,68.70
2023-04-04T09:13:16.063Z,67.10
2023-04-04T09:15:55.465Z,66.10
2023-04-04T09:18:22.546Z,66.30
2023-04-04T09:20:50.094Z,66.20
2023-04-04T09:23:21.509Z,65.40
2023-04-04T09:28:23.218Z,62.60
2023-04-04T09:30:51.972Z,61.50
2023-04-04T09:33:22.047Z,62.00
2023-04-04T09:35:59.024Z,62.60
2023-04-04T09:38:28.429Z,63.30
2023-04-04T09:40:57.071Z,62.40
2023-04-04T09:43:25.502Z,61.70
2023-04-04T09:45:54.920Z,59.60
2023-04-04T09:48:33.390Z,60.30
2023-04-04T09:51:03.800Z,59.80
2023-04-04T09:53:30.929Z,59.70
2023-04-04T09:55:58.017Z,60.80
2023-04-04T09:58:28.156Z,60.10
2023-04-04T10:01:00.974Z,58.70
2023-04-04T10:03:28.897Z,58.10
2023-04-04T10:05:59.970Z,56.80
2023-04-04T10:08:29.216Z,56.00
2023-04-04T10:11:10.544Z,55.60
2023-04-04T10:13:44.187Z,54.80
2023-04-04T10:16:11.894Z,53.90
2023-04-04T10:18:39.772Z,53.00
2023-04-04T10:23:40.673Z,54.30
2023-04-04T10:26:07.647Z,52.00
2023-04-04T10:28:34.869Z,52.80
2023-04-04T10:31:10.105Z,51.70
2023-04-04T10:33:48.305Z,52.50
2023-04-04T10:36:21.500Z,53.80
2023-04-04T10:38:58.494Z,53.30
2023-04-04T10:41:30.649Z,52.90
2023-04-04T10:44:01.993Z,53.90
2023-04-04T10:46:31.919Z,54.30
2023-04-04T10:49:01.417Z,52.20
2023-04-04T10:51:32.633Z,53.20
2023-04-04T10:54:00.898Z,52.70
2023-04-04T10:56:29.733Z,52.40
2023-04-04T10:59:13.676Z,52.00
2023-04-04T11:02:02.206Z,52.70
2023-04-04T11:04:33.192Z,52.10
2023-04-04T11:07:28.364Z,51.80
2023-04-04T11:09:56.724Z,52.20
2023-04-04T11:12:27.758Z,51.70
2023-04-04T11:15:02.570Z,51.40
2023-04-04T11:17:52.713Z,51.20
2023-04-04T11:20:31.168Z,51.40
2023-04-04T11:23:07.331Z,52.40
2023-04-04T11:25:35.257Z,53.40
2023-04-04T11:28:25.528Z,54.50
2023-04-04T11:31:23.466Z,55.40
2023-04-04T11:34:11.545Z,54.70
2023-04-04T11:36:45.240Z,55.40
2023-04-04T11:39:22.885Z,56.60
2023-04-04T11:41:59.820Z,56.70
2023-04-04T11:44:30.916Z,55.80
2023-04-04T11:47:06.979Z,54.20
2023-04-04T11:49:37.041Z,54.30
2023-04-04T11:52:24.048Z,55.10
2023-04-04T11:54:51.257Z,55.10
2023-04-04T11:57:19.490Z,56.50
2023-04-04T11:59:51.058Z,57.50
2023-04-04T12:02:32.073Z,57.80
2023-04-04T12:04:59.869Z,58.70
2023-04-04T12:07:28.695Z,58.50
2023-04-04T12:09:57.831Z,58.80
2023-04-04T12:12:26.407Z,58.10
2023-04-04T12:15:00.262Z,58.20
2023-04-04T12:17:34.846Z,58.10
2023-04-04T12:20:02.272Z,58.60
2023-04-04T12:22:35.196Z,59.00
2023-04-04T12:25:02.197Z,58.40
2023-04-04T12:27:30.147Z,58.30
2023-04-04T12:29:57.385Z,58.40
2023-04-04T12:32:24.728Z,58.70
2023-04-04T12:34:51.655Z,58.80
2023-04-04T12:37:22.114Z,59.10
2023-04-04T12:39:49.889Z,59.10
2023-04-04T12:42:24.378Z,58.90
2023-04-04T12:44:54.898Z,59.00
2023-04-04T12:47:24.424Z,58.60
2023-04-04T12:49:56.739Z,58.60
2023-04-04T12:52:32.958Z,59.00
2023-04-04T12:55:08.930Z,59.30
2023-04-04T12:57:38.475Z,59.60
2023-04-04T13:00:07.917Z,59.60
2023-04-04T13:02:36.383Z,60.00
2023-04-04T13:05:04.036Z,59.90
2023-04-04T13:07:33.866Z,60.50
2023-04-04T13:10:06.009Z,59.80
2023-04-04T13:12:59.649Z,59.60
2023-04-04T13:15:52.222Z,59.50
2023-04-04T13:18:25.020Z,60.10
2023-04-04T13:20:53.583Z,60.10
2023-04-04T13:23:23.086Z,59.70
2023-04-04T13:25:50.312Z,60.00
2023-04-04T13:28:17.664Z,59.80
2023-04-04T13:30:46.889Z,60.30
2023-04-04T13:33:13.930Z,60.50
2023-04-04T13:35:46.441Z,59.70
2023-04-04T13:38:13.878Z,59.00
2023-04-04T13:40:40.937Z,59.70
2023-04-04T13:43:08.281Z,60.10
2023-04-04T13:45:35.717Z,60.00
2023-04-04T13:48:04.212Z,60.50
2023-04-04T13:50:33.112Z,60.30
2023-04-04T13:53:00.041Z,60.90
2023-04-04T13:55:28.037Z,61.00
2023-04-04T13:57:55.006Z,61.60
2023-04-04T14:00:22.500Z,60.20
2023-04-04T14:02:53.033Z,60.10
2023-04-04T14:05:22.456Z,60.10
2023-04-04T14:07:49.471Z,59.60
2023-04-04T14:10:17.081Z,59.90
2023-04-04T14:12:44.282Z,59.90
2023-04-04T14:15:12.276Z,59.60
2023-04-04T14:17:40.570Z,60.20
2023-04-04T14:20:08.219Z,60.10
2023-04-04T14:22:35.525Z,60.30
2023-04-04T14:25:02.545Z,59.80
2023-04-04T14:27:29.436Z,59.70
2023-04-04T14:29:56.365Z,60.30
2023-04-04T14:32:23.294Z,60.00
2023-04-04T14:34:50.499Z,60.10
2023-04-04T14:37:17.601Z,60.40
2023-04-04T14:39:45.054Z,60.80
2023-04-04T14:42:11.945Z,60.10
2023-04-04T14:44:38.840Z,60.60
2023-04-04T14:47:05.925Z,60.60
2023-04-04T14:49:33.143Z,61.40
2023-04-04T14:52:00.097Z,61.40
2023-04-04T14:54:27.304Z,61.90
2023-04-04T14:56:54.281Z,62.50
2023-04-04T14:59:21.185Z,63.00
2023-04-04T15:01:48.158Z,61.50
2023-04-04T15:04:15.226Z,61.00
2023-04-04T15:06:42.758Z,61.80
2023-04-04T15:09:11.580Z,62.40
2023-04-04T15:11:38.627Z,62.80
2023-04-04T15:14:05.767Z,63.00
2023-04-04T15:16:35.932Z,63.70
2023-04-04T15:19:02.954Z,63.50
2023-04-04T15:21:29.814Z,62.60
2023-04-04T15:23:56.731Z,65.20
2023-04-04T15:26:24.158Z,67.90
2023-04-04T15:28:51.048Z,69.00
2023-04-04T15:31:18.070Z,70.10
2023-04-04T15:33:45.029Z,70.60
2023-04-04T15:36:11.963Z,70.70
2023-04-04T15:38:39.914Z,70.90
2023-04-04T15:41:08.799Z,71.40
2023-04-04T15:43:37.027Z,72.10
2023-04-04T15:46:04.108Z,73.20
2023-04-04T15:48:31.115Z,73.40
2023-04-04T15:51:03.273Z,74.30
2023-04-04T15:53:33.491Z,75.00
2023-04-04T15:56:02.045Z,74.80
2023-04-04T15:58:29.004Z,74.80
2023-04-04T16:00:56.179Z,75.10
2023-04-04T16:03:24.686Z,75.30
2023-04-04T16:05:52.216Z,75.50
2023-04-04T16:08:19.156Z,75.80
2023-04-04T16:10:46.084Z,75.20
2023-04-04T16:13:14.144Z,75.10
2023-04-04T16:15:41.281Z,75.20
2023-04-04T16:18:08.825Z,75.60
2023-04-04T16:20:36.283Z,75.40
2023-04-04T16:23:03.405Z,75.60
2023-04-04T16:25:30.349Z,76.00
2023-04-04T16:27:57.394Z,76.30
2023-04-04T16:30:24.377Z,76.50
2023-04-04T16:32:51.906Z,76.50
2023-04-04T16:35:19.061Z,76.80
2023-04-04T16:37:46.220Z,76.90
2023-04-04T16:40:15.189Z,76.70
2023-04-04T16:42:42.459Z,76.70
2023-04-04T16:45:10.058Z,77.60
2023-04-04T16:47:37.076Z,78.70
2023-04-04T16:50:05.403Z,78.40
2023-04-04T16:52:33.370Z,80.20
2023-04-04T16:55:00.461Z,79.90
2023-04-04T16:57:27.441Z,79.90
2023-04-04T16:59:54.449Z,81.90
2023-04-04T17:02:21.396Z,82.70
2023-04-04T17:04:48.281Z,84.40
2023-04-04T17:07:15.302Z,84.80
2023-04-04T17:09:42.294Z,85.20
2023-04-04T17:12:10.273Z,86.00
2023-04-04T17:14:37.651Z,87.20
2023-04-04T17:17:05.882Z,88.00
2023-04-04T17:19:35.108Z,88.20
2023-04-04T17:22:02.879Z,88.70
2023-04-04T17:24:29.908Z,89.60
2023-04-04T17:26:58.581Z,90.10
2023-04-04T17:29:27.133Z,90.00
2023-04-04T17:31:55.785Z,90.20
2023-04-04T17:34:23.597Z,90.50
2023-04-04T17:36:52.442Z,90.60
2023-04-04T17:39:19.586Z,90.70
2023-04-04T17:41:47.972Z,90.80
2023-04-04T17:44:19.549Z,90.80
2023-04-04T17:46:46.964Z,91.10
2023-04-04T17:49:20.161Z,91.20
2023-04-04T17:51:48.664Z,91.30
2023-04-04T17:54:15.646Z,91.50
2023-04-04T17:56:46.116Z,91.60
2023-04-04T17:59:14.811Z,91.90
2023-04-04T18:01:41.858Z,92.00
2023-04-04T18:04:09.119Z,92.30
2023-04-04T18:06:39.505Z,92.50
2023-04-04T18:09:08.754Z,92.60
2023-04-04T18:11:36.937Z,93.00
2023-04-04T18:14:04.437Z,93.20
2023-04-04T18:16:39.131Z,93.60
2023-04-04T18:19:08.057Z,93.60
2023-04-04T18:21:34.910Z,93.60
2023-04-04T18:24:01.962Z,93.80
2023-04-04T18:26:28.905Z,94.10
2023-04-04T18:28:56.028Z,94.10
2023-04-04T18:31:23.002Z,94.30
2023-04-04T18:33:50.024Z,94.70
2023-04-04T18:36:17.049Z,94.80
2023-04-04T18:38:45.142Z,95.00
2023-04-04T18:41:12.106Z,95.00
2023-04-04T18:43:39.034Z,95.00
2023-04-04T18:46:06.000Z,95.20
2023-04-04T18:48:34.052Z,95.50
2023-04-04T18:51:01.762Z,95.40
2023-04-04T18:53:29.560Z,95.50
2023-04-04T18:55:59.678Z,95.70
2023-04-04T18:58:27.234Z,95.90
2023-04-04T19:00:55.977Z,95.90
2023-04-04T19:03:23.397Z,96.10
2023-04-04T19:05:50.959Z,96.20
2023-04-04T19:08:18.314Z,96.20
2023-04-04T19:10:47.623Z,96.50
2023-04-04T19:13:15.921Z,96.40
2023-04-04T19:15:43.744Z,96.50
2023-04-04T19:18:11.901Z,96.70
2023-04-04T19:20:42.133Z,96.80
2023-04-04T19:23:09.256Z,97.10
2023-04-04T19:25:36.352Z,97.30
2023-04-04T19:28:03.600Z,97.80
2023-04-04T19:30:41.489Z,97.70
2023-04-04T19:33:17.053Z,97.80
2023-04-04T19:35:55.917Z,97.80
2023-04-04T19:38:37.421Z,97.90
2023-04-04T19:41:33.924Z,98.00
2023-04-04T19:44:01.272Z,97.90
2023-04-04T19:46:31.649Z,97.90
2023-04-04T19:49:19.388Z,98.30
2023-04-04T19:51:56.171Z,98.50
2023-04-04T19:54:29.223Z,98.70
2023-04-04T19:57:01.093Z,99.00
2023-04-04T20:00:01.872Z,99.60
2023-04-04T20:02:34.784Z,99.50
2023-04-04T20:05:02.324Z,99.70
2023-04-04T20:07:29.379Z,99.80
2023-04-04T20:09:56.570Z,99.90
2023-04-04T20:12:24.349Z,99.90
2023-04-04T20:14:51.782Z,99.90
2023-04-04T20:17:19.062Z,99.90
2023-04-04T20:19:46.945Z,99.90
2023-04-04T20:22:14.432Z,99.90
2023-04-04T20:24:43.515Z,99.90
2023-04-04T20:27:10.563Z,99.90
2023-04-04T20:29:37.827Z,99.90
2023-04-04T20:32:08.606Z,99.90
2023-04-04T20:34:45.391Z,99.90
2023-04-04T20:37:12.269Z,99.90
2023-04-04T20:39:41.369Z,99.90
2023-04-04T20:42:28.297Z,99.90
2023-04-04T20:45:00.915Z,99.90
2023-04-04T20:47:51.730Z,99.90
2023-04-04T20:50:19.138Z,99.90
2023-04-04T20:52:57.034Z,99.90
2023-04-04T20:55:27.173Z,99.90
2023-04-04T20:58:08.925Z,99.90
2023-04-04T21:00:40.403Z,99.90
2023-04-04T21:03:23.078Z,99.90
2023-04-04T21:05:50.018Z,99.90
2023-04-04T21:08:24.283Z,99.90
2023-04-04T21:10:56.294Z,99.90
2023-04-04T21:13:31.401Z,99.90
2023-04-04T21:16:12.691Z,99.90
2023-04-04T21:18:41.785Z,99.90
2023-04-04T21:21:11.996Z,99.90
2023-04-04T21:23:45.907Z,99.90
2023-04-04T21:26:29.830Z,99.90
2023-04-04T21:28:58.673Z,99.90
2023-04-04T21:31:29.818Z,99.90
2023-04-04T21:33:58.286Z,99.90
2023-04-04T21:36:26.290Z,99.90
2023-04-04T21:38:55.236Z,99.90
2023-04-04T21:41:30.478Z,99.90
2023-04-04T21:44:00.457Z,99.90
2023-04-04T21:46:29.439Z,99.90
2023-04-04T21:48:56.898Z,99.90
2023-04-04T21:51:24.236Z,99.90
2023-04-04T21:53:51.251Z,99.90
2023-04-04T21:56:19.019Z,99.90
2023-04-04T21:58:46.057Z,99.90
2023-04-04T22:01:13.198Z,99.90
2023-04-04T22:03:40.814Z,99.90
2023-04-04T22:06:07.866Z,99.90
2023-04-04T22:08:34.811Z,99.90
2023-04-04T22:11:03.359Z,99.90
2023-04-04T22:13:33.977Z,99.90
2023-04-04T22:16:04.642Z,99.90
2023-04-04T22:18:33.229Z,99.90
2023-04-04T22:21:04.677Z,99.90
2023-04-04T22:23:37.886Z,99.90
2023-04-04T22:26:05.395Z,99.90
2023-04-04T22:28:33.797Z,99.90
2023-04-04T22:31:02.162Z,99.90
2023-04-04T22:33:29.967Z,99.90
2023-04-04T22:35:59.076Z,99.90
2023-04-04T22:38:27.228Z,99.90
2023-04-04T22:40:54.999Z,99.90
2023-04-04T22:43:22.759Z,99.90
2023-04-04T22:45:49.799Z,99.90
2023-04-04T22:48:17.366Z,99.90
2023-04-04T22:50:45.243Z,99.90
2023-04-04T22:53:13.180Z,99.90
2023-04-04T22:55:41.276Z,99.90
2023-04-04T22:58:09.795Z,99.90
2023-04-04T23:00:36.873Z,99.90
2023-04-04T23:03:06.239Z,99.90
2023-04-04T23:05:33.255Z,99.90
2023-04-04T23:08:03.580Z,99.90
2023-04-04T23:10:31.115Z,99.90
2023-04-04T23:12:58.300Z,99.90
2023-04-04T23:15:27.630Z,99.90
2023-04-04T23:17:55.145Z,99.90
2023-04-04T23:20:22.132Z,99.90
2023-04-04T23:22:49.120Z,99.90
2023-04-04T23:25:16.319Z,99.90
2023-04-04T23:27:43.182Z,99.90
2023-04-04T23:30:10.518Z,99.90
2023-04-04T23:32:37.444Z,99.90
2023-04-04T23:35:04.600Z,99.90
2023-04-04T23:37:31.593Z,99.90
2023-04-04T23:39:58.458Z,99.90
2023-04-04T23:42:26.708Z,99.90
2023-04-04T23:44:53.627Z,99.90
2023-04-04T23:47:20.981Z,99.90
2023-04-04T23:49:47.931Z,99.90
2023-04-04T23:52:14.875Z,99.90
2023-04-04T23:54:41.835Z,99.90
2023-04-04T23:57:08.711Z,99.90
2023-04-04T23:59:36.223Z,99.90
